Time;durP1;ratioP1;P1;durP2;ratioP2;P2;SDS_P1;SDS_P2;PMS_P1;PMS_P2;Temp;Humidity;BMP_temperature;BMP_pressure;BME280_temperature;BME280_humidity;BME280_pressure;Samples;Min_cycle;Max_cycle;Signal;HPM_P1;HPM_P2
2023/04/01 00:00:20;;;;;;;3.70;1.00;;;12.20;99.90;;;;;;4918922;29;20042;-69
2023/04/01 00:02:47;;;;;;;3.03;1.00;;;12.30;99.90;;;;;;4919269;29;20127;-69
2023/04/01 00:05:13;;;;;;;7.50;1.00;;;12.20;99.90;;;;;;4935753;29;20110;-70
2023/04/01 00:07:40;;;;;;;3.33;0.90;;;12.30;99.90;;;;;;4935412;29;20042;-70
2023/04/01 00:10:07;;;;;;;2.65;1.23;;;12.30;99.90;;;;;;4935436;29;20333;-68
2023/04/01 00:12:33;;;;;;;3.60;1.00;;;12.20;99.90;;;;;;4935496;29;20039;-70
2023/04/01 00:14:59;;;;;;;2.47;0.82;;;12.20;99.90;;;;;;4935868;29;20505;-69
2023/04/01 00:17:25;;;;;;;4.47;0.93;;;12.20;99.90;;;;;;4935479;29;20042;-70
2023/04/01 00:19:50;;;;;;;7.32;0.85;;;12.20;99.90;;;;;;4918555;29;20054;-69
2023/04/01 00:22:16;;;;;;;2.13;0.77;;;12.30;99.90;;;;;;4935378;29;20040;-70
2023/04/01 00:24:42;;;;;;;3.47;0.80;;;12.20;99.90;;;;;;4935088;29;20039;-70
2023/04/01 00:27:08;;;;;;;2.40;0.80;;;12.30;99.90;;;;;;4935718;29;20334;-69
2023/04/01 00:29:34;;;;;;;3.00;0.85;;;12.20;99.90;;;;;;4935234;29;20031;-70
2023/04/01 00:32:00;;;;;;;3.25;0.70;;;12.30;99.90;;;;;;4934862;29;20477;-71
2023/04/01 00:34:26;;;;;;;3.13;1.10;;;12.20;99.90;;;;;;4935110;29;20028;-68
2023/04/01 00:36:52;;;;;;;1.52;0.85;;;12.20;99.90;;;;;;4917946;29;20032;-69
2023/04/01 00:39:18;;;;;;;4.97;0.70;;;12.10;99.90;;;;;;4934746;29;20099;-69
2023/04/01 00:41:45;;;;;;;5.03;0.93;;;12.30;99.90;;;;;;4935447;29;20028;-70
2023/04/01 00:44:22;;;;;;;2.08;0.60;;;12.20;99.90;;;;;;4934543;29;20086;-69
2023/04/01 00:46:49;;;;;;;4.40;1.20;;;12.20;99.90;;;;;;4934794;29;20128;-68
2023/04/01 00:49:17;;;;;;;3.00;0.77;;;12.20;99.90;;;;;;4917880;29;20044;-69
2023/04/01 00:51:45;;;;;;;3.22;0.70;;;12.30;99.90;;;;;;4934799;29;20090;-69
2023/04/01 00:54:13;;;;;;;4.53;0.88;;;12.10;99.90;;;;;;4935175;29;20034;-69
2023/04/01 00:56:47;;;;;;;1.60;0.65;;;12.10;99.90;;;;;;4917825;29;20062;-69
2023/04/01 00:59:19;;;;;;;5.35;0.90;;;12.10;99.90;;;;;;4934582;29;20027;-70
2023/04/01 01:01:45;;;;;;;7.38;0.85;;;12.10;99.90;;;;;;4934614;29;20093;-69
2023/04/01 01:04:28;;;;;;;3.85;0.98;;;12.10;99.90;;;;;;4934523;29;20036;-69
2023/04/01 01:07:09;;;;;;;6.75;0.68;;;12.10;99.90;;;;;;4934542;29;20043;-70
2023/04/01 01:10:16;;;;;;;3.90;0.50;;;12.10;99.90;;;;;;4934816;29;20103;-70
2023/04/01 01:13:01;;;;;;;3.15;0.47;;;12.10;99.90;;;;;;4921010;29;20111;-69
2023/04/01 01:15:46;;;;;;;2.72;0.60;;;12.00;99.90;;;;;;4917332;29;20030;-69
2023/04/01 01:18:50;;;;;;;2.13;0.68;;;12.00;99.90;;;;;;4917577;29;20020;-69
2023/04/01 01:21:35;;;;;;;2.95;0.63;;;12.10;99.90;;;;;;4934351;29;20383;-68
2023/04/01 01:24:50;;;;;;;3.85;0.70;;;12.10;99.90;;;;;;4934445;29;20446;-69
2023/04/01 01:27:18;;;;;;;1.33;0.80;;;12.00;99.90;;;;;;4885362;29;20036;-68
2023/04/01 01:30:01;;;;;;;4.55;0.32;;;12.00;99.90;;;;;;4917714;29;20024;-69
2023/04/01 01:32:51;;;;;;;4.50;0.82;;;11.90;99.90;;;;;;4917154;29;20413;-69
2023/04/01 01:35:20;;;;;;;2.00;0.60;;;12.00;99.90;;;;;;4933771;29;20032;-70
2023/04/01 01:37:49;;;;;;;4.82;0.47;;;12.00;99.90;;;;;;4934084;29;20027;-69
2023/04/01 01:40:16;;;;;;;3.97;0.70;;;12.00;99.90;;;;;;4917150;29;20059;-69
2023/04/01 01:42:48;;;;;;;2.00;0.50;;;12.00;99.90;;;;;;4933703;29;20023;-69
2023/04/01 01:45:18;;;;;;;2.65;0.50;;;12.00;99.90;;;;;;4917485;29;20068;-69
2023/04/01 01:47:45;;;;;;;0.93;0.40;;;12.00;99.90;;;;;;4933865;29;20070;-69
2023/04/01 01:50:12;;;;;;;2.22;0.32;;;11.90;99.90;;;;;;4916911;29;20040;-69
2023/04/01 01:52:38;;;;;;;2.55;0.70;;;12.00;99.90;;;;;;4933815;29;20039;-69
2023/04/01 01:55:25;;;;;;;3.05;0.50;;;12.00;99.90;;;;;;4933456;29;20094;-70
2023/04/01 01:57:52;;;;;;;;;;;12.00;99.90;;;;;;4934186;29;20032;-70
2023/04/01 02:00:19;;;;;;;2.33;0.60;;;12.00;99.90;;;;;;4916713;29;19911;-70
2023/04/01 02:02:47;;;;;;;1.27;0.43;;;12.00;99.90;;;;;;4917316;29;20051;-69
2023/04/01 02:05:21;;;;;;;2.70;0.60;;;12.00;99.90;;;;;;4933500;29;20043;-68
2023/04/01 02:07:55;;;;;;;2.67;0.73;;;12.10;99.90;;;;;;4933535;29;20063;-70
2023/04/01 02:10:24;;;;;;;1.52;0.55;;;12.00;99.90;;;;;;4933426;29;20047;-69
2023/04/01 02:12:53;;;;;;;1.83;0.50;;;12.00;99.90;;;;;;4933267;29;20036;-69
2023/04/01 02:15:21;;;;;;;1.25;0.70;;;12.00;99.90;;;;;;4933644;29;20087;-71
2023/04/01 02:17:49;;;;;;;2.80;0.68;;;12.10;99.90;;;;;;4934286;29;20024;-69
2023/04/01 02:20:16;;;;;;;;;;;12.10;99.90;;;;;;4933927;29;20042;-70
2023/04/01 02:22:47;;;;;;;1.08;0.45;;;12.10;99.90;;;;;;4933413;29;20469;-69
2023/04/01 02:25:17;;;;;;;2.42;0.43;;;12.10;99.90;;;;;;4933234;29;20031;-69
2023/04/01 02:27:44;;;;;;;6.00;1.00;;;12.00;99.90;;;;;;4933233;29;20036;-69
2023/04/01 02:30:11;;;;;;;4.10;1.05;;;12.00;99.90;;;;;;4933733;29;20038;-69
2023/04/01 02:32:39;;;;;;;2.67;0.63;;;12.00;99.90;;;;;;4953355;29;20051;-69
2023/04/01 02:35:16;;;;;;;5.85;1.33;;;12.00;99.90;;;;;;4956442;29;20082;-70
2023/04/01 02:37:43;;;;;;;3.38;0.52;;;11.90;99.90;;;;;;4956410;29;20039;-69
2023/04/01 02:40:12;;;;;;;5.13;0.47;;;11.90;99.90;;;;;;4956394;29;20035;-69
2023/04/01 02:42:38;;;;;;;1.95;0.55;;;11.90;99.90;;;;;;4956242;29;20122;-69
2023/04/01 02:45:05;;;;;;;3.67;0.68;;;12.00;99.90;;;;;;4956626;29;20202;-69
2023/04/01 02:47:31;;;;;;;6.13;0.77;;;12.00;99.90;;;;;;4956254;29;20046;-69
2023/04/01 02:49:59;;;;;;;1.25;0.57;;;11.90;99.90;;;;;;4956271;29;20122;-70
2023/04/01 02:52:26;;;;;;;2.60;0.50;;;11.90;99.90;;;;;;4956159;29;20035;-68
2023/04/01 02:54:52;;;;;;;2.33;0.68;;;12.00;99.90;;;;;;4955980;29;20059;-68
2023/04/01 02:57:17;;;;;;;2.13;0.38;;;11.90;99.90;;;;;;4955862;29;20117;-70
2023/04/01 02:59:43;;;;;;;3.90;0.68;;;12.00;99.90;;;;;;4956359;29;20023;-70
2023/04/01 03:02:09;;;;;;;1.63;0.50;;;12.00;99.90;;;;;;4956051;29;20035;-68
2023/04/01 03:04:35;;;;;;;2.83;0.68;;;12.00;99.90;;;;;;4955815;29;20035;-69
2023/04/01 03:07:01;;;;;;;1.08;0.45;;;12.00;99.90;;;;;;4938594;29;20032;-68
2023/04/01 03:09:28;;;;;;;1.80;0.45;;;12.00;99.90;;;;;;4938597;29;20119;-68
2023/04/01 03:11:54;;;;;;;4.33;0.90;;;11.90;99.90;;;;;;4939173;29;20035;-69
2023/04/01 03:14:20;;;;;;;4.07;0.50;;;11.90;99.90;;;;;;4955837;29;20058;-69
2023/04/01 03:16:45;;;;;;;2.22;0.55;;;11.90;99.90;;;;;;4955535;29;20066;-70
2023/04/01 03:19:11;;;;;;;2.42;0.60;;;11.90;99.90;;;;;;4955638;29;20066;-69
2023/04/01 03:21:37;;;;;;;2.58;0.43;;;11.90;99.90;;;;;;4955542;29;20059;-69
2023/04/01 03:24:03;;;;;;;1.85;0.40;;;11.90;99.90;;;;;;4955767;28;20027;-68
2023/04/01 03:26:28;;;;;;;3.03;0.60;;;11.90;99.90;;;;;;4955216;29;20027;-69
2023/04/01 03:28:55;;;;;;;1.83;0.50;;;11.90;99.90;;;;;;4938213;29;20478;-69
2023/04/01 03:31:21;;;;;;;1.52;0.35;;;12.00;99.90;;;;;;4938153;29;20054;-69
2023/04/01 03:33:47;;;;;;;3.42;0.68;;;11.90;99.90;;;;;;4955333;29;20524;-68
2023/04/01 03:36:13;;;;;;;1.10;0.50;;;12.00;99.90;;;;;;4955571;29;20031;-69
2023/04/01 03:38:40;;;;;;;3.80;0.40;;;11.90;99.90;;;;;;4955077;29;20135;-69
2023/04/01 03:41:06;;;;;;;0.80;0.40;;;11.90;99.90;;;;;;4955228;29;20027;-69
2023/04/01 03:43:32;;;;;;;2.13;0.50;;;12.00;99.90;;;;;;4954410;28;20082;-70
2023/04/01 03:45:58;;;;;;;2.05;0.63;;;12.00;99.90;;;;;;4938020;29;20031;-69
2023/04/01 03:48:25;;;;;;;2.33;0.60;;;12.00;99.90;;;;;;4955396;29;20102;-69
2023/04/01 03:50:51;;;;;;;1.90;0.52;;;12.10;99.90;;;;;;4955426;29;20034;-70
2023/04/01 03:53:17;;;;;;;4.30;0.88;;;12.00;99.90;;;;;;4954797;29;20086;-69
2023/04/01 03:55:43;;;;;;;2.80;0.52;;;12.10;99.90;;;;;;4954869;29;20035;-68
2023/04/01 03:58:09;;;;;;;2.80;0.50;;;11.90;99.90;;;;;;4954808;29;20046;-70
2023/04/01 04:00:35;;;;;;;1.33;0.40;;;11.90;99.90;;;;;;4954838;29;20424;-70
2023/04/01 04:03:01;;;;;;;5.18;0.50;;;11.90;99.90;;;;;;4955340;29;20030;-69
2023/04/01 04:05:27;;;;;;;3.83;0.80;;;12.00;99.90;;;;;;4954816;29;20122;-69
2023/04/01 04:07:53;;;;;;;1.83;0.30;;;11.80;99.90;;;;;;4937646;29;20039;-70
2023/04/01 04:10:20;;;;;;;1.92;0.63;;;11.90;99.90;;;;;;4954918;29;20039;-70
2023/04/01 04:12:46;;;;;;;1.08;0.40;;;11.90;99.90;;;;;;4954620;29;20027;-69
2023/04/01 04:15:12;;;;;;;2.33;0.57;;;11.90;99.90;;;;;;4955016;29;20489;-70
2023/04/01 04:17:38;;;;;;;1.65;0.55;;;11.90;99.90;;;;;;4954551;29;20031;-69
2023/04/01 04:20:04;;;;;;;6.47;0.77;;;11.80;99.90;;;;;;4954577;29;20047;-69
2023/04/01 04:22:30;;;;;;;2.80;0.57;;;11.80;99.90;;;;;;4954456;29;20023;-69
2023/04/01 04:24:55;;;;;;;3.60;0.50;;;11.80;99.90;;;;;;4954336;28;20343;-70
2023/04/01 04:27:21;;;;;;;3.42;0.50;;;11.80;99.90;;;;;;4954384;29;20038;-69
2023/04/01 04:29:47;;;;;;;4.03;0.88;;;11.80;99.90;;;;;;4937715;29;20090;-68
2023/04/01 04:32:12;;;;;;;3.10;0.60;;;11.70;99.90;;;;;;4954251;29;20432;-69
2023/04/01 04:34:38;;;;;;;1.27;0.40;;;11.80;99.90;;;;;;4937257;29;20041;-69
2023/04/01 04:37:04;;;;;;;1.27;0.50;;;11.80;99.90;;;;;;4954182;29;20042;-68
2023/04/01 04:39:29;;;;;;;3.50;0.82;;;11.90;99.90;;;;;;4936941;29;20077;-69
2023/04/01 04:41:55;;;;;;;2.55;0.75;;;11.80;99.90;;;;;;4954562;29;20054;-69
2023/04/01 04:44:21;;;;;;;3.00;0.60;;;11.80;99.90;;;;;;4954063;29;20035;-70
2023/04/01 04:46:46;;;;;;;2.08;0.60;;;11.80;99.90;;;;;;4954028;29;20039;-69
2023/04/01 04:49:12;;;;;;;2.30;0.40;;;11.80;99.90;;;;;;4954022;29;20038;-69
2023/04/01 04:51:38;;;;;;;4.43;0.82;;;11.80;99.90;;;;;;4953802;29;20038;-67
2023/04/01 04:54:05;;;;;;;1.60;0.40;;;11.70;99.90;;;;;;4936516;29;20374;-69
2023/04/01 04:56:32;;;;;;;2.00;0.50;;;11.80;99.90;;;;;;4953783;29;20046;-68
2023/04/01 04:58:58;;;;;;;5.75;0.50;;;11.80;99.90;;;;;;4953572;29;20134;-69
2023/04/01 05:01:24;;;;;;;1.88;0.80;;;11.70;99.90;;;;;;4953852;29;20046;-69
2023/04/01 05:03:51;;;;;;;2.42;0.88;;;11.70;99.90;;;;;;4953797;29;20032;-68
2023/04/01 05:06:17;;;;;;;5.97;0.73;;;11.70;99.90;;;;;;4953469;29;20054;-68
2023/04/01 05:08:44;;;;;;;1.92;0.65;;;11.80;99.90;;;;;;4954105;29;20031;-69
2023/04/01 05:11:14;;;;;;;3.25;0.85;;;11.70;99.90;;;;;;4953425;29;20035;-67
2023/04/01 05:13:41;;;;;;;5.43;1.00;;;11.70;99.90;;;;;;4953644;29;20049;-68
2023/04/01 05:16:15;;;;;;;4.25;0.50;;;11.70;99.90;;;;;;4953259;29;20366;-69
2023/04/01 05:18:41;;;;;;;3.03;0.70;;;11.70;99.90;;;;;;4953339;29;20532;-69
2023/04/01 05:21:12;;;;;;;6.05;0.80;;;11.60;99.90;;;;;;4954100;29;20031;-69
2023/04/01 05:23:38;;;;;;;3.13;0.70;;;11.60;99.90;;;;;;4936267;29;20032;-69
2023/04/01 05:26:10;;;;;;;3.22;0.45;;;11.60;99.90;;;;;;4953345;29;20106;-68
2023/04/01 05:28:36;;;;;;;2.13;0.55;;;11.60;99.90;;;;;;4953289;29;20086;-69
2023/04/01 05:31:03;;;;;;;1.20;0.45;;;11.70;99.90;;;;;;4936047;29;20051;-70
2023/04/01 05:33:50;;;;;;;1.65;0.52;;;11.60;99.90;;;;;;4953092;29;20370;-69
2023/04/01 05:36:16;;;;;;;7.30;2.60;;;11.50;99.90;;;;;;4936529;29;20062;-69
2023/04/01 05:38:43;;;;;;;8.68;2.63;;;11.50;99.90;;;;;;4936343;29;20044;-69
2023/04/01 05:41:08;;;;;;;6.95;2.53;;;11.70;99.90;;;;;;4953320;29;20031;-69
2023/04/01 05:43:38;;;;;;;7.53;3.13;;;11.60;99.90;;;;;;4952935;29;20035;-69
2023/04/01 05:46:04;;;;;;;3.33;1.70;;;11.60;99.90;;;;;;4953102;29;20477;-69
2023/04/01 05:48:29;;;;;;;2.38;0.80;;;11.50;99.90;;;;;;4952950;29;20027;-69
2023/04/01 05:50:55;;;;;;;3.50;0.70;;;11.60;99.90;;;;;;4953401;29;20150;-69
2023/04/01 05:53:22;;;;;;;2.13;0.55;;;11.60;99.90;;;;;;4952936;29;20296;-69
2023/04/01 05:55:47;;;;;;;1.60;0.60;;;11.60;99.90;;;;;;4952670;29;20043;-69
2023/04/01 05:58:13;;;;;;;0.85;0.45;;;11.70;99.90;;;;;;4936078;29;20038;-69
2023/04/01 06:00:39;;;;;;;5.25;0.85;;;11.70;99.90;;;;;;4952677;29;20606;-69
2023/04/01 06:03:05;;;;;;;2.95;0.75;;;11.70;99.90;;;;;;4953352;29;20030;-69
2023/04/01 06:05:39;;;;;;;1.13;0.52;;;11.70;99.90;;;;;;4952430;28;20031;-69
2023/04/01 06:08:15;;;;;;;4.68;2.08;;;11.70;99.90;;;;;;4952792;29;20039;-69
2023/04/01 06:11:01;;;;;;;2.65;1.15;;;11.70;99.90;;;;;;4952741;29;20035;-69
2023/04/01 06:13:58;;;;;;;2.55;0.63;;;11.70;99.90;;;;;;4952569;29;20469;-69
2023/04/01 06:16:36;;;;;;;;;;;11.80;99.90;;;;;;4953080;29;20051;-69
2023/04/01 06:19:25;;;;;;;10.10;0.50;;;11.80;99.90;;;;;;4952552;29;20001;-68
2023/04/01 06:22:02;;;;;;;2.35;0.50;;;11.80;99.90;;;;;;4952546;29;20039;-69
2023/04/01 06:24:59;;;;;;;2.85;0.68;;;11.80;99.90;;;;;;4952445;28;20422;-69
2023/04/01 06:27:43;;;;;;;9.68;4.75;;;11.90;99.90;;;;;;4952407;29;20093;-68
2023/04/01 06:30:32;;;;;;;4.00;1.73;;;12.10;99.90;;;;;;4952831;29;20031;-69
2023/04/01 06:33:17;;;;;;;2.08;0.95;;;12.00;99.90;;;;;;4952586;29;20499;-69
2023/04/01 06:35:59;;;;;;;2.25;0.80;;;12.00;99.90;;;;;;4952433;29;20043;-69
2023/04/01 06:38:27;;;;;;;3.67;0.63;;;12.10;99.90;;;;;;4935497;29;20401;-70
2023/04/01 06:41:01;;;;;;;4.47;0.60;;;12.10;99.90;;;;;;4936418;29;20067;-69
2023/04/01 06:43:58;;;;;;;4.88;1.40;;;12.10;99.90;;;;;;4934176;29;20047;-70
2023/04/01 06:46:29;;;;;;;2.50;0.73;;;12.20;99.90;;;;;;4934504;29;20032;-69
2023/04/01 06:49:03;;;;;;;1.05;0.47;;;12.30;99.90;;;;;;4934072;29;20486;-68
2023/04/01 06:52:07;;;;;;;3.03;0.80;;;12.30;99.90;;;;;;4934244;29;20079;-69
2023/04/01 06:54:39;;;;;;;4.35;0.70;;;12.40;99.90;;;;;;4912136;29;20032;-69
2023/04/01 06:57:21;;;;;;;4.82;0.88;;;12.40;99.90;;;;;;4917654;29;20410;-69
2023/04/01 06:59:48;;;;;;;4.18;0.80;;;12.40;99.90;;;;;;4934206;29;20094;-70
2023/04/01 07:02:20;;;;;;;6.07;2.97;;;12.40;99.90;;;;;;4934067;29;20102;-69
2023/04/01 07:04:48;;;;;;;5.38;1.92;;;12.50;99.90;;;;;;4934128;29;20366;-69
2023/04/01 07:07:14;;;;;;;1.60;0.55;;;12.50;99.90;;;;;;4917198;29;20034;-68
2023/04/01 07:09:46;;;;;;;2.28;0.60;;;12.50;99.90;;;;;;4933721;29;20031;-69
2023/04/01 07:12:31;;;;;;;3.20;0.70;;;12.60;99.90;;;;;;4934393;29;20497;-70
2023/04/01 07:15:01;;;;;;;2.25;0.60;;;12.80;99.90;;;;;;4934312;29;20067;-69
2023/04/01 07:17:36;;;;;;;2.42;0.70;;;12.60;99.90;;;;;;4918389;29;20039;-69
2023/04/01 07:20:12;;;;;;;2.03;0.57;;;12.70;99.90;;;;;;4937565;29;20232;-69
2023/04/01 07:22:51;;;;;;;0.88;0.50;;;12.70;99.90;;;;;;4937409;29;20074;-70
2023/04/01 07:25:30;;;;;;;4.18;0.60;;;12.70;99.90;;;;;;4922232;29;20044;-70
2023/04/01 07:28:18;;;;;;;2.05;0.73;;;12.60;99.90;;;;;;4918606;29;20051;-69
2023/04/01 07:30:56;;;;;;;3.75;0.70;;;12.50;99.90;;;;;;4917390;29;20040;-69
2023/04/01 07:33:41;;;;;;;;;;;12.60;99.90;;;;;;4918887;29;20024;-71
2023/04/01 07:36:23;;;;;;;1.58;0.50;;;12.50;99.90;;;;;;4918630;29;20005;-71
2023/04/01 07:39:03;;;;;;;4.68;0.60;;;12.50;99.90;;;;;;4918426;29;20037;-70
2023/04/01 07:41:59;;;;;;;3.00;0.57;;;12.50;99.90;;;;;;4918218;29;20032;-70
2023/04/01 07:44:42;;;;;;;4.47;0.80;;;12.50;99.90;;;;;;4917884;29;20036;-70
2023/04/01 07:47:34;;;;;;;1.05;0.57;;;12.60;99.90;;;;;;4917837;29;20044;-69
2023/04/01 07:50:27;;;;;;;1.02;0.50;;;12.60;99.90;;;;;;4909923;29;20036;-71
2023/04/01 07:53:29;;;;;;;1.85;0.70;;;12.70;99.90;;;;;;4913792;29;20142;-69
2023/04/01 07:56:14;;;;;;;2.63;0.52;;;12.70;99.90;;;;;;4919479;29;20040;-69
2023/04/01 07:58:57;;;;;;;2.22;0.70;;;12.80;99.90;;;;;;4917476;29;20032;-70
2023/04/01 08:01:45;;;;;;;1.67;0.40;;;12.80;99.90;;;;;;4917542;29;20485;-66
2023/04/01 08:04:30;;;;;;;0.82;0.52;;;12.90;99.90;;;;;;4916580;29;20032;-67
2023/04/01 08:07:20;;;;;;;2.33;0.80;;;13.00;99.90;;;;;;4917513;29;20032;-66
2023/04/01 08:10:04;;;;;;;2.35;0.40;;;13.10;99.90;;;;;;4917486;29;20352;-66
2023/04/01 08:12:35;;;;;;;0.75;0.40;;;13.20;99.90;;;;;;4917543;29;20084;-67
2023/04/01 08:15:27;;;;;;;1.92;0.40;;;13.30;99.90;;;;;;4917998;29;20026;-69
2023/04/01 08:18:10;;;;;;;2.78;1.00;;;13.50;99.90;;;;;;4917895;29;20079;-65
2023/04/01 08:20:36;;;;;;;0.88;0.50;;;13.60;99.90;;;;;;4916562;29;20036;-66
2023/04/01 08:23:26;;;;;;;1.20;0.70;;;13.80;99.90;;;;;;4917441;29;20120;-68
2023/04/01 08:26:35;;;;;;;1.33;0.45;;;14.00;99.90;;;;;;4917576;29;20033;-66
2023/04/01 08:29:13;;;;;;;0.88;0.40;;;14.20;99.90;;;;;;4898793;29;20127;-69
2023/04/01 08:31:43;;;;;;;1.98;0.52;;;14.50;99.90;;;;;;4917050;29;20064;-68
2023/04/01 08:34:18;;;;;;;2.20;1.08;;;15.00;99.90;;;;;;4917172;29;20038;-68
2023/04/01 08:36:50;;;;;;;2.50;0.70;;;15.50;99.90;;;;;;4917120;29;20127;-68
2023/04/01 08:39:32;;;;;;;2.20;0.60;;;15.90;99.90;;;;;;4917517;29;20103;-68
2023/04/01 08:42:36;;;;;;;1.73;0.70;;;16.30;99.90;;;;;;4916996;29;20478;-69
2023/04/01 08:45:42;;;;;;;0.63;0.30;;;16.30;99.40;;;;;;4917580;29;20063;-69
2023/04/01 08:48:27;;;;;;;2.37;1.30;;;16.10;99.50;;;;;;4916952;29;20032;-67
2023/04/01 08:51:02;;;;;;;2.03;0.50;;;16.00;99.50;;;;;;4917023;29;20071;-68
2023/04/01 08:53:40;;;;;;;1.80;0.40;;;15.70;99.80;;;;;;4916442;29;20064;-68
2023/04/01 08:56:17;;;;;;;0.95;0.45;;;15.70;99.90;;;;;;4916625;29;20067;-68
2023/04/01 08:58:53;;;;;;;1.23;0.50;;;15.70;99.90;;;;;;4899887;29;20037;-69
2023/04/01 09:01:51;;;;;;;0.28;0.20;;;15.50;99.90;;;;;;4899809;29;20399;-69
2023/04/01 09:04:34;;;;;;;0.75;0.40;;;15.60;99.90;;;;;;4915798;29;20036;-68
2023/04/01 09:07:39;;;;;;;2.92;0.38;;;15.50;99.90;;;;;;4915242;29;20047;-68
2023/04/01 09:10:41;;;;;;;1.85;0.75;;;15.40;99.90;;;;;;4915603;29;20036;-67
2023/04/01 09:13:35;;;;;;;1.13;0.40;;;15.50;99.90;;;;;;4915435;29;20028;-67
2023/04/01 09:16:12;;;;;;;5.22;1.02;;;15.50;99.90;;;;;;4915407;29;20044;-68
2023/04/01 09:18:48;;;;;;;0.98;0.30;;;15.60;99.90;;;;;;4915217;29;20036;-68
2023/04/01 09:21:33;;;;;;;1.98;0.40;;;15.50;99.90;;;;;;4915762;29;20028;-68
2023/04/01 09:24:40;;;;;;;0.65;0.28;;;15.60;99.70;;;;;;4915307;29;20040;-69
2023/04/01 09:27:10;;;;;;;2.88;0.80;;;15.60;99.20;;;;;;4871192;29;20043;-67
2023/04/01 09:29:42;;;;;;;3.22;0.50;;;15.50;98.90;;;;;;4915180;29;20379;-69
2023/04/01 09:32:27;;;;;;;4.45;1.70;;;15.40;98.90;;;;;;4914952;29;20052;-69
2023/04/01 09:35:35;;;;;;;1.17;0.55;;;15.40;98.90;;;;;;4914921;29;20438;-68
2023/04/01 09:38:19;;;;;;;;;;;15.30;98.80;;;;;;4883714;29;20356;-67
2023/04/01 09:40:55;;;;;;;3.13;0.40;;;15.30;99.00;;;;;;4914523;29;19926;-70
2023/04/01 09:43:27;;;;;;;1.67;0.30;;;15.30;99.20;;;;;;4913808;29;20044;-69
2023/04/01 09:46:08;;;;;;;1.48;0.30;;;15.10;99.10;;;;;;4914937;29;20043;-68
2023/04/01 09:48:45;;;;;;;0.70;0.40;;;15.10;99.50;;;;;;4914071;29;20042;-68
2023/04/01 09:51:19;;;;;;;4.07;0.50;;;15.20;99.60;;;;;;4920642;29;20028;-68
2023/04/01 09:54:05;;;;;;;1.02;0.40;;;15.20;99.40;;;;;;4915067;29;20259;-67
2023/04/01 09:57:08;;;;;;;1.17;0.43;;;15.10;99.20;;;;;;4914606;29;20032;-65
2023/04/01 09:59:54;;;;;;;2.05;0.22;;;14.90;99.40;;;;;;4914678;29;20032;-66
2023/04/01 10:02:47;;;;;;;3.15;0.60;;;15.00;99.90;;;;;;4914792;29;20033;-70
2023/04/01 10:05:38;;;;;;;2.75;0.40;;;14.90;99.30;;;;;;4913673;29;20028;-69
2023/04/01 10:08:22;;;;;;;1.10;0.17;;;14.90;99.50;;;;;;4914517;29;20591;-69
2023/04/01 10:11:33;;;;;;;1.13;0.20;;;14.80;99.60;;;;;;4914543;29;20055;-69
2023/04/01 10:14:08;;;;;;;0.52;0.20;;;14.80;99.80;;;;;;4914663;29;20036;-70
2023/04/01 10:16:59;;;;;;;1.20;0.50;;;14.70;99.90;;;;;;4914346;29;20051;-69
2023/04/01 10:19:43;;;;;;;1.80;0.57;;;14.70;99.90;;;;;;4914192;29;20047;-69
2023/04/01 10:22:12;;;;;;;2.25;0.30;;;14.60;99.50;;;;;;4914599;29;20550;-69
2023/04/01 10:25:11;;;;;;;0.30;0.10;;;14.50;99.80;;;;;;4913651;29;20407;-69
2023/04/01 10:27:49;;;;;;;1.00;0.20;;;14.50;99.40;;;;;;4914563;29;20028;-69
2023/04/01 10:30:42;;;;;;;0.45;0.20;;;14.40;99.80;;;;;;4928813;29;20039;-69
2023/04/01 10:33:39;;;;;;;1.23;0.20;;;14.30;99.90;;;;;;4934384;29;20054;-70
2023/04/01 10:36:13;;;;;;;0.67;0.23;;;14.20;99.90;;;;;;4934483;29;20070;-69
2023/04/01 10:39:00;;;;;;;1.15;0.30;;;14.20;99.90;;;;;;4933342;29;20028;-71
2023/04/01 10:41:54;;;;;;;0.75;0.50;;;14.00;99.90;;;;;;4934269;29;20359;-70
2023/04/01 10:44:38;;;;;;;1.08;0.20;;;14.00;99.90;;;;;;4933731;29;20032;-71
2023/04/01 10:47:13;;;;;;;1.73;0.40;;;14.00;99.90;;;;;;4932941;29;20179;-70
2023/04/01 10:49:42;;;;;;;0.98;0.30;;;14.00;99.90;;;;;;4934082;29;20086;-71
2023/04/01 10:52:32;;;;;;;2.05;0.47;;;14.00;99.90;;;;;;4933797;29;20032;-70
2023/04/01 10:55:32;;;;;;;3.55;0.57;;;14.00;99.90;;;;;;4938068;29;20128;-70
2023/04/01 10:58:16;;;;;;;2.78;0.40;;;14.10;99.90;;;;;;4937666;29;20043;-70
2023/04/01 11:01:24;;;;;;;0.63;0.20;;;14.10;99.90;;;;;;4938000;29;20046;-69
2023/04/01 11:03:56;;;;;;;3.92;0.55;;;14.20;99.90;;;;;;4930008;29;20099;-70
2023/04/01 11:06:24;;;;;;;1.52;0.38;;;14.20;99.90;;;;;;4937866;29;20024;-70
2023/04/01 11:09:05;;;;;;;22.92;12.18;;;14.20;99.90;;;;;;4937208;29;20434;-69
2023/04/01 11:11:45;;;;;;;8.02;3.53;;;14.40;99.90;;;;;;4937625;29;20038;-70
2023/04/01 11:14:39;;;;;;;0.75;0.50;;;14.30;99.90;;;;;;4936514;29;20031;-71
2023/04/01 11:17:20;;;;;;;1.00;0.40;;;14.40;99.90;;;;;;4936274;29;20062;-70
2023/04/01 11:20:17;;;;;;;1.73;0.40;;;14.50;99.90;;;;;;4937374;29;20032;-69
2023/04/01 11:22:59;;;;;;;0.60;0.40;;;14.60;99.90;;;;;;4937304;29;20251;-69
2023/04/01 11:25:45;;;;;;;0.38;0.38;;;14.60;99.90;;;;;;4937589;29;20042;-68
2023/04/01 11:28:41;;;;;;;1.67;0.32;;;14.60;99.90;;;;;;4937311;29;20048;-69
2023/04/01 11:31:37;;;;;;;3.15;0.80;;;14.60;99.90;;;;;;4936178;29;20082;-69
2023/04/01 11:34:05;;;;;;;0.65;0.30;;;14.50;99.90;;;;;;4937646;29;20381;-69
2023/04/01 11:36:42;;;;;;;1.30;0.60;;;14.50;99.90;;;;;;4936979;29;20070;-69
2023/04/01 11:39:13;;;;;;;1.90;0.40;;;14.50;99.90;;;;;;4937746;29;20020;-69
2023/04/01 11:41:45;;;;;;;2.78;1.30;;;14.50;99.90;;;;;;4937414;29;20032;-68
2023/04/01 11:44:22;;;;;;;3.05;0.50;;;14.60;99.90;;;;;;4936721;29;20036;-69
2023/04/01 11:47:22;;;;;;;0.90;0.40;;;14.70;99.90;;;;;;4936983;29;20036;-69
2023/04/01 11:49:59;;;;;;;3.88;1.90;;;14.70;99.90;;;;;;4936787;29;20032;-70
2023/04/01 11:52:39;;;;;;;1.98;1.10;;;14.70;99.90;;;;;;4927238;29;20027;-70
2023/04/01 11:55:41;;;;;;;0.98;0.50;;;14.70;99.90;;;;;;4936440;29;20485;-70
2023/04/01 11:58:37;;;;;;;0.32;0.20;;;14.70;99.90;;;;;;4936479;29;20062;-71
2023/04/01 12:01:12;;;;;;;1.05;0.30;;;14.80;99.90;;;;;;4922302;29;20042;-70
2023/04/01 12:04:00;;;;;;;2.78;0.60;;;14.70;99.90;;;;;;4936205;29;20481;-70
2023/04/01 12:06:52;;;;;;;1.08;0.30;;;14.80;99.90;;;;;;4936918;29;20446;-70
2023/04/01 12:09:48;;;;;;;1.48;0.30;;;15.00;99.90;;;;;;4937105;29;20019;-69
2023/04/01 12:12:16;;;;;;;0.43;0.40;;;15.10;99.90;;;;;;4919115;29;20046;-70
2023/04/01 12:15:01;;;;;;;0.65;0.52;;;15.10;99.90;;;;;;4937054;29;20034;-71
2023/04/01 12:17:56;;;;;;;1.73;0.30;;;15.10;99.90;;;;;;4936337;29;20042;-70
2023/04/01 12:20:56;;;;;;;0.30;0.20;;;15.10;99.90;;;;;;4919954;29;20036;-69
2023/04/01 12:23:48;;;;;;;1.23;0.45;;;15.40;99.90;;;;;;4919459;29;20027;-71
2023/04/01 12:26:35;;;;;;;0.60;0.38;;;15.50;99.90;;;;;;4936218;29;20028;-69
2023/04/01 12:29:14;;;;;;;1.25;0.60;;;15.50;99.90;;;;;;4935794;29;20036;-70
2023/04/01 12:32:17;;;;;;;1.77;0.47;;;15.60;99.90;;;;;;4936165;29;20056;-70
2023/04/01 12:35:06;;;;;;;0.63;0.47;;;15.60;99.90;;;;;;4936417;29;20058;-70
2023/04/01 12:37:46;;;;;;;1.08;0.40;;;15.70;99.90;;;;;;4936306;29;20058;-70
2023/04/01 12:40:36;;;;;;;0.57;0.20;;;15.90;99.90;;;;;;4935226;29;20040;-70
2023/04/01 12:43:50;;;;;;;2.03;0.70;;;15.90;99.90;;;;;;4935935;29;20046;-68
2023/04/01 12:46:34;;;;;;;1.80;0.80;;;15.80;99.30;;;;;;4936148;29;20046;-69
2023/04/01 12:49:30;;;;;;;1.80;0.52;;;15.90;99.90;;;;;;4936122;29;20036;-70
2023/04/01 12:52:14;;;;;;;0.65;0.47;;;15.90;99.40;;;;;;4935982;29;20043;-71
2023/04/01 12:55:03;;;;;;;1.80;1.00;;;15.80;98.90;;;;;;4935984;29;20461;-71
2023/04/01 12:58:11;;;;;;;3.22;1.98;;;15.90;98.80;;;;;;4935385;29;20455;-71
2023/04/01 13:00:55;;;;;;;2.78;1.20;;;15.90;99.40;;;;;;4934762;29;20032;-69
2023/04/01 13:03:48;;;;;;;1.20;0.98;;;15.90;99.20;;;;;;4935862;29;20031;-69
2023/04/01 13:06:27;;;;;;;3.45;0.90;;;15.90;99.20;;;;;;4936520;29;20485;-70
2023/04/01 13:09:16;;;;;;;0.75;0.60;;;15.90;99.10;;;;;;4935877;29;20374;-71
2023/04/01 13:11:48;;;;;;;0.85;0.63;;;15.90;99.20;;;;;;4935443;29;20042;-71
2023/04/01 13:14:20;;;;;;;0.60;0.40;;;15.90;99.20;;;;;;4934696;29;20031;-71
2023/04/01 13:17:04;;;;;;;0.73;0.40;;;15.90;98.90;;;;;;4935060;29;20179;-70
2023/04/01 13:19:51;;;;;;;0.95;0.38;;;15.90;98.80;;;;;;4919758;29;20047;-71
2023/04/01 13:22:29;;;;;;;0.90;0.40;;;15.70;98.70;;;;;;4936293;29;20035;-71
2023/04/01 13:25:32;;;;;;;0.82;0.47;;;15.60;99.20;;;;;;4935805;29;20052;-69
2023/04/01 13:28:20;;;;;;;0.40;0.38;;;15.70;99.50;;;;;;4936327;29;20035;-69
2023/04/01 13:30:57;;;;;;;1.17;0.30;;;15.40;98.60;;;;;;4936071;29;20119;-70
2023/04/01 13:33:56;;;;;;;1.58;0.55;;;15.50;99.70;;;;;;4935190;29;20106;-70
2023/04/01 13:37:15;;;;;;;1.65;0.40;;;15.60;99.70;;;;;;4935182;29;20027;-71
2023/04/01 13:39:46;;;;;;;0.68;0.40;;;15.60;99.20;;;;;;4858092;29;20090;-69